createdAt,value
2019-03-29T00:00:24.975Z,55.00
2019-03-29T00:02:55.105Z,56.20
2019-03-29T00:05:25.283Z,54.87
2019-03-29T00:07:55.113Z,51.57
2019-03-29T00:10:25.230Z,54.00
2019-03-29T00:12:57.041Z,54.23
2019-03-29T00:15:27.332Z,50.43
2019-03-29T00:17:57.204Z,50.60
2019-03-29T00:20:27.134Z,52.03
2019-03-29T00:22:57.246Z,58.90
2019-03-29T00:25:27.386Z,54.50
2019-03-29T00:27:58.092Z,51.83
2019-03-29T00:30:27.973Z,52.90
2019-03-29T00:32:57.999Z,56.67
2019-03-29T00:35:29.101Z,48.10
2019-03-29T00:37:59.296Z,62.50
2019-03-29T00:40:30.374Z,50.97
2019-03-29T00:43:00.924Z,49.17
2019-03-29T00:45:30.920Z,52.07
2019-03-29T00:48:01.113Z,48.50
2019-03-29T00:50:31.224Z,55.07
2019-03-29T00:53:01.350Z,56.43
2019-03-29T00:55:31.750Z,55.77
2019-03-29T00:58:01.616Z,50.33
2019-03-29T01:00:31.759Z,48.40
2019-03-29T01:03:02.716Z,56.37
2019-03-29T01:05:32.780Z,58.73
2019-03-29T01:08:08.187Z,56.77
2019-03-29T01:10:34.812Z,54.47
2019-03-29T01:13:04.927Z,56.23
2019-03-29T01:15:35.229Z,53.50
2019-03-29T01:18:06.215Z,53.07
2019-03-29T01:20:36.218Z,56.10
2019-03-29T01:23:06.061Z,57.50
2019-03-29T01:25:35.976Z,51.87
2019-03-29T01:28:06.086Z,52.03
2019-03-29T01:30:36.446Z,56.07
2019-03-29T01:33:06.364Z,58.97
2019-03-29T01:35:36.490Z,57.33
2019-03-29T01:38:06.371Z,54.60
2019-03-29T01:40:36.252Z,55.53
2019-03-29T01:43:06.406Z,60.43
2019-03-29T01:45:36.246Z,53.67
2019-03-29T01:48:06.542Z,53.57
2019-03-29T01:50:36.711Z,56.73
2019-03-29T01:53:06.815Z,59.10
2019-03-29T01:55:36.686Z,57.57
2019-03-29T01:58:06.514Z,57.77
2019-03-29T02:00:36.617Z,54.33
2019-03-29T02:03:06.570Z,56.50
2019-03-29T02:05:36.699Z,51.00
2019-03-29T02:08:06.808Z,54.90
2019-03-29T02:10:36.660Z,55.87
2019-03-29T02:13:06.555Z,51.97
2019-03-29T02:15:37.196Z,57.03
2019-03-29T02:18:07.826Z,58.37
2019-03-29T02:20:37.671Z,55.33
2019-03-29T02:23:07.754Z,58.20
2019-03-29T02:25:37.919Z,55.70
2019-03-29T02:28:07.746Z,52.83
2019-03-29T02:30:37.545Z,55.73
2019-03-29T02:33:07.411Z,55.67
2019-03-29T02:35:38.484Z,54.87
2019-03-29T02:38:09.020Z,57.47
2019-03-29T02:40:38.985Z,55.00
2019-03-29T02:43:10.678Z,52.87
2019-03-29T02:45:40.901Z,55.63
2019-03-29T02:48:10.763Z,54.30
2019-03-29T02:50:40.728Z,51.40
2019-03-29T02:53:11.369Z,55.37
2019-03-29T02:55:41.491Z,51.13
2019-03-29T02:58:11.886Z,56.80
2019-03-29T03:00:41.868Z,57.67
2019-03-29T03:03:12.065Z,55.37
2019-03-29T03:05:42.289Z,48.93
2019-03-29T03:08:12.129Z,47.30
2019-03-29T03:10:41.960Z,49.90
2019-03-29T03:13:11.788Z,54.77
2019-03-29T03:15:41.619Z,52.67
2019-03-29T03:18:11.465Z,46.73
2019-03-29T03:20:41.670Z,54.93
2019-03-29T03:23:11.634Z,52.03
2019-03-29T03:25:41.482Z,49.07
2019-03-29T03:28:11.310Z,45.57
2019-03-29T03:30:41.190Z,51.27
2019-03-29T03:33:11.121Z,49.83
2019-03-29T03:35:41.072Z,50.00
2019-03-29T03:38:10.941Z,49.67
2019-03-29T03:40:40.890Z,50.40
2019-03-29T03:43:10.845Z,51.50
2019-03-29T03:45:40.743Z,50.80
2019-03-29T03:48:10.637Z,48.93
2019-03-29T03:50:42.108Z,46.10
2019-03-29T03:53:12.377Z,45.40
2019-03-29T03:55:42.839Z,46.73
2019-03-29T03:58:15.589Z,51.67
2019-03-29T04:00:54.878Z,46.30
2019-03-29T04:03:25.139Z,46.57
2019-03-29T04:05:55.122Z,46.47
2019-03-29T04:08:25.038Z,52.40
2019-03-29T04:10:54.895Z,49.30
2019-03-29T04:13:24.760Z,50.27
2019-03-29T04:15:54.690Z,51.77
2019-03-29T04:18:24.522Z,47.87
2019-03-29T04:20:54.494Z,46.67
2019-03-29T04:23:24.315Z,52.67
2019-03-29T04:25:54.301Z,47.73
2019-03-29T04:28:24.220Z,48.07
2019-03-29T04:30:54.323Z,49.63
2019-03-29T04:33:24.175Z,49.93
2019-03-29T04:35:55.092Z,44.80
2019-03-29T04:38:24.920Z,49.10
2019-03-29T04:40:54.764Z,49.17
2019-03-29T04:43:24.964Z,50.37
2019-03-29T04:45:54.839Z,49.33
2019-03-29T04:48:24.804Z,46.63
2019-03-29T04:50:54.707Z,46.97
2019-03-29T04:53:24.616Z,44.70
2019-03-29T04:55:54.531Z,52.07
2019-03-29T04:58:24.680Z,45.23
2019-03-29T05:00:54.641Z,48.13
2019-03-29T05:03:24.520Z,45.50
2019-03-29T05:05:54.424Z,46.27
2019-03-29T05:08:24.354Z,49.63
2019-03-29T05:10:54.541Z,47.60
2019-03-29T05:13:24.447Z,50.93
2019-03-29T05:15:54.302Z,46.20
2019-03-29T05:18:24.154Z,47.30
2019-03-29T05:20:53.974Z,45.13
2019-03-29T05:23:23.897Z,45.17
2019-03-29T05:25:53.745Z,45.40
2019-03-29T05:28:23.936Z,45.80
2019-03-29T05:30:54.066Z,45.60
2019-03-29T05:33:24.125Z,48.40
2019-03-29T05:35:53.999Z,47.80
2019-03-29T05:38:23.874Z,49.83
2019-03-29T05:40:53.764Z,50.73
2019-03-29T05:43:23.632Z,48.17
2019-03-29T05:45:56.177Z,45.93
2019-03-29T05:48:29.437Z,50.13
2019-03-29T05:50:59.755Z,48.13
2019-03-29T05:53:30.051Z,48.03
2019-03-29T05:56:00.124Z,48.17
2019-03-29T05:58:30.367Z,49.13
2019-03-29T06:01:01.445Z,47.17
2019-03-29T06:03:31.638Z,47.23
2019-03-29T06:06:02.542Z,41.83
2019-03-29T06:09:03.181Z,43.57
2019-03-29T06:11:33.441Z,46.40
2019-03-29T06:14:03.319Z,46.00
2019-03-29T06:16:39.274Z,44.23
2019-03-29T06:19:08.194Z,49.83
2019-03-29T06:23:00.133Z,49.57
2019-03-29T06:42:06.919Z,44.70
2019-03-29T06:45:13.339Z,44.50
2019-03-29T06:47:44.495Z,39.40
2019-03-29T06:50:14.442Z,40.33
2019-03-29T06:52:44.446Z,46.17
2019-03-29T06:55:14.461Z,40.10
2019-03-29T06:57:44.311Z,36.33
2019-03-29T07:00:14.783Z,40.27
2019-03-29T07:02:44.670Z,40.37
2019-03-29T07:05:14.872Z,42.17
2019-03-29T07:07:45.148Z,36.93
2019-03-29T07:10:15.052Z,38.43
2019-03-29T07:12:45.165Z,35.23
2019-03-29T07:15:15.111Z,37.73
2019-03-29T07:17:44.947Z,31.50
2019-03-29T07:20:14.907Z,33.17
2019-03-29T07:22:44.840Z,30.90
2019-03-29T07:25:14.998Z,31.50
2019-03-29T07:27:51.887Z,30.73
2019-03-29T07:30:16.939Z,33.57
2019-03-29T07:32:47.104Z,26.50
2019-03-29T07:35:16.969Z,25.67
2019-03-29T07:37:46.871Z,25.37
2019-03-29T07:40:17.136Z,24.57
2019-03-29T07:42:46.991Z,26.10
2019-03-29T07:45:21.592Z,24.77
2019-03-29T07:47:51.812Z,30.30
2019-03-29T07:50:29.733Z,29.17
2019-03-29T07:53:09.660Z,25.00
2019-03-29T07:55:48.549Z,23.53
2019-03-29T07:58:32.955Z,24.60
2019-03-29T08:22:27.128Z,22.07
2019-03-29T08:24:59.352Z,20.20
2019-03-29T08:27:29.492Z,21.13
2019-03-29T08:29:59.830Z,21.53
2019-03-29T08:32:36.994Z,19.97
2019-03-29T08:35:07.067Z,20.20
2019-03-29T08:37:38.123Z,18.30
2019-03-29T08:40:08.206Z,20.93
2019-03-29T08:42:38.356Z,18.73
2019-03-29T08:45:08.622Z,17.87
2019-03-29T08:47:39.028Z,20.03
2019-03-29T08:50:10.104Z,20.70
2019-03-29T08:52:40.325Z,18.40
2019-03-29T08:55:13.056Z,21.77
2019-03-29T08:57:43.007Z,21.20
2019-03-29T09:00:15.755Z,23.33
2019-03-29T09:02:44.737Z,21.33
2019-03-29T09:05:14.757Z,19.97
2019-03-29T09:07:45.737Z,21.80
2019-03-29T09:10:26.100Z,23.53
2019-03-29T09:12:55.954Z,19.40
2019-03-29T09:15:26.415Z,23.10
2019-03-29T09:17:59.655Z,18.90
2019-03-29T09:20:28.484Z,20.03
2019-03-29T09:22:58.783Z,21.10
2019-03-29T09:25:29.047Z,20.23
2019-03-29T09:27:58.892Z,21.10
2019-03-29T09:30:29.180Z,22.27
2019-03-29T09:32:59.556Z,20.87
2019-03-29T09:35:29.728Z,22.50
2019-03-29T09:38:02.284Z,19.57
2019-03-29T09:40:35.282Z,21.07
2019-03-29T10:07:42.074Z,20.27
2019-03-29T10:07:45.342Z,19.93
2019-03-29T10:10:15.434Z,18.07
2019-03-29T10:12:45.988Z,18.00
2019-03-29T10:15:17.011Z,20.27
2019-03-29T10:17:47.185Z,18.00
2019-03-29T10:20:17.299Z,12.70
2019-03-29T10:22:47.435Z,17.53
2019-03-29T10:25:34.772Z,19.17
2019-03-29T10:28:04.966Z,13.43
2019-03-29T10:31:31.496Z,15.30
2019-03-29T10:33:49.897Z,9.03
2019-03-29T10:36:19.806Z,11.87
2019-03-29T10:38:53.918Z,12.47
2019-03-29T10:41:27.184Z,13.43
2019-03-29T10:43:57.302Z,12.90
2019-03-29T10:46:27.203Z,14.87
2019-03-29T10:48:57.157Z,23.97
2019-03-29T10:51:27.268Z,12.03
2019-03-29T10:53:57.274Z,7.63
2019-03-29T10:56:33.805Z,6.03
2019-03-29T10:58:59.041Z,9.03
2019-03-29T11:01:29.283Z,9.47
2019-03-29T11:03:59.472Z,5.43
2019-03-29T11:06:29.520Z,5.33
2019-03-29T11:09:01.791Z,7.37
2019-03-29T11:11:35.007Z,9.07
2019-03-29T11:14:04.973Z,10.27
2019-03-29T11:16:35.050Z,7.33
2019-03-29T11:19:05.250Z,9.87
2019-03-29T11:21:35.505Z,9.43
2019-03-29T11:24:09.170Z,6.83
2019-03-29T11:26:38.782Z,8.00
2019-03-29T11:29:08.781Z,7.57
2019-03-29T11:31:38.932Z,5.17
2019-03-29T11:34:09.137Z,7.70
2019-03-29T11:36:38.970Z,10.13
2019-03-29T11:39:09.607Z,6.93
2019-03-29T11:41:39.451Z,7.40
2019-03-29T11:44:09.400Z,9.93
2019-03-29T11:46:39.240Z,5.97
2019-03-29T11:49:09.867Z,6.77
2019-03-29T11:51:39.980Z,5.20
2019-03-29T11:54:11.204Z,5.43
2019-03-29T11:56:41.382Z,6.57
2019-03-29T11:59:11.282Z,9.03
2019-03-29T12:01:42.176Z,7.50
2019-03-29T12:04:13.252Z,6.57
2019-03-29T12:06:43.600Z,6.50
2019-03-29T12:09:13.916Z,7.60
2019-03-29T12:11:43.812Z,5.57
2019-03-29T12:14:13.887Z,6.63
2019-03-29T12:16:44.228Z,4.57
2019-03-29T13:06:03.566Z,8.27
2019-03-29T13:08:33.780Z,6.43
2019-03-29T13:11:03.998Z,8.40
2019-03-29T13:13:33.892Z,4.17
2019-03-29T13:16:03.731Z,5.10
2019-03-29T13:18:33.567Z,5.73
2019-03-29T13:21:03.435Z,7.03
2019-03-29T13:23:35.343Z,5.07
2019-03-29T13:26:05.252Z,5.30
2019-03-29T13:28:35.742Z,5.47
2019-03-29T13:31:06.192Z,8.83
2019-03-29T13:33:36.275Z,9.57
2019-03-29T13:36:06.471Z,6.57
2019-03-29T13:38:36.386Z,7.67
2019-03-29T13:41:07.235Z,5.73
2019-03-29T13:43:37.328Z,6.10
2019-03-29T13:46:07.419Z,7.27
2019-03-29T13:48:37.233Z,5.47
2019-03-29T13:51:07.300Z,8.70
2019-03-29T13:53:37.226Z,5.77
2019-03-29T13:56:07.318Z,5.10
2019-03-29T13:58:37.356Z,10.27
2019-03-29T14:01:07.202Z,8.10
2019-03-29T14:03:37.243Z,6.20
2019-03-29T14:06:07.953Z,8.43
2019-03-29T14:08:38.123Z,6.87
2019-03-29T14:11:08.346Z,5.10
2019-03-29T14:13:38.467Z,5.43
2019-03-29T14:16:09.021Z,6.93
2019-03-29T14:18:38.855Z,7.80
2019-03-29T14:21:09.010Z,8.17
2019-03-29T14:23:40.056Z,5.37
2019-03-29T14:26:10.205Z,6.60
2019-03-29T14:28:40.388Z,8.97
2019-03-29T14:31:10.259Z,5.77
2019-03-29T14:33:43.626Z,5.50
2019-03-29T14:36:13.441Z,9.10
2019-03-29T14:38:43.670Z,8.27
2019-03-29T14:41:13.738Z,5.33
2019-03-29T14:43:43.912Z,7.30
2019-03-29T14:46:13.863Z,5.43
2019-03-29T14:48:43.950Z,5.23
2019-03-29T14:51:14.020Z,4.27
2019-03-29T14:53:44.833Z,6.30
2019-03-29T14:56:15.036Z,5.23
2019-03-29T14:58:45.115Z,3.53
2019-03-29T15:01:15.347Z,6.57
2019-03-29T15:03:45.144Z,4.47
2019-03-29T15:06:15.501Z,7.20
2019-03-29T15:08:45.730Z,3.97
2019-03-29T15:11:22.142Z,6.63
2019-03-29T15:13:47.047Z,4.03
2019-03-29T15:16:16.902Z,3.40
2019-03-29T15:18:47.048Z,4.37
2019-03-29T15:21:16.840Z,5.00
2019-03-29T15:23:46.663Z,4.00
2019-03-29T15:26:16.508Z,4.77
2019-03-29T15:28:46.336Z,7.13
2019-03-29T15:31:17.511Z,3.23
2019-03-29T15:33:47.672Z,3.70
2019-03-29T15:36:17.493Z,5.17
2019-03-29T15:38:47.468Z,3.20
2019-03-29T15:41:17.437Z,5.23
2019-03-29T15:43:47.636Z,7.50
2019-03-29T15:46:17.476Z,4.93
2019-03-29T15:48:47.617Z,4.10
2019-03-29T15:51:17.877Z,3.47
2019-03-29T15:53:50.765Z,3.73
2019-03-29T15:56:20.576Z,2.80
2019-03-29T15:58:50.417Z,4.33
2019-03-29T16:01:24.984Z,5.20
2019-03-29T16:03:57.756Z,4.63
2019-03-29T16:06:32.343Z,5.80
2019-03-29T16:09:11.011Z,4.03
2019-03-29T16:11:42.044Z,3.20
2019-03-29T16:14:20.251Z,4.57
2019-03-29T16:16:50.413Z,4.63
2019-03-29T16:19:23.907Z,4.67
2019-03-29T16:21:54.300Z,3.07
2019-03-29T16:24:26.285Z,4.33
2019-03-29T16:26:59.280Z,2.70
2019-03-29T16:29:36.152Z,6.50
2019-03-29T16:32:09.080Z,3.73
2019-03-29T16:34:38.912Z,2.27
2019-03-29T16:37:11.024Z,3.83
2019-03-29T16:39:40.847Z,2.23
2019-03-29T16:42:10.675Z,9.17
2019-03-29T16:44:40.490Z,2.63
2019-03-29T16:47:13.018Z,6.13
2019-03-29T16:49:42.835Z,4.97
2019-03-29T16:52:13.041Z,5.93
2019-03-29T16:54:42.884Z,3.43
2019-03-29T16:57:12.889Z,4.90
2019-03-29T16:59:42.729Z,5.90
2019-03-29T17:02:12.617Z,2.50
2019-03-29T17:04:42.679Z,4.47
2019-03-29T17:07:12.534Z,2.80
2019-03-29T17:13:13.633Z,4.23
2019-03-29T17:15:43.443Z,4.93
2019-03-29T17:18:13.302Z,4.70
2019-03-29T17:20:43.168Z,5.93
2019-03-29T17:23:13.892Z,4.37
2019-03-29T17:25:43.821Z,4.37
2019-03-29T17:28:13.891Z,5.00
2019-03-29T17:30:55.817Z,6.97
2019-03-29T17:33:25.615Z,4.83
2019-03-29T17:35:55.454Z,5.67
2019-03-29T17:38:25.600Z,6.90
2019-03-29T17:40:55.555Z,4.27
2019-03-29T17:43:26.187Z,6.80
2019-03-29T17:45:56.337Z,6.50
2019-03-29T17:48:26.247Z,11.13
2019-03-29T17:50:56.064Z,6.90
2019-03-29T17:53:25.908Z,8.30
2019-03-29T17:55:55.877Z,8.37
2019-03-29T17:58:26.201Z,6.47
2019-03-29T18:00:56.094Z,8.23
2019-03-29T18:03:26.227Z,7.37
2019-03-29T18:05:56.351Z,8.87
2019-03-29T18:08:26.311Z,8.50
2019-03-29T18:10:56.441Z,13.03
2019-03-29T18:13:26.262Z,9.13
2019-03-29T18:15:59.140Z,9.60
2019-03-29T18:18:28.972Z,8.43
2019-03-29T18:21:00.081Z,8.40
2019-03-29T18:23:30.661Z,9.30
2019-03-29T18:26:00.759Z,23.93
2019-03-29T18:28:30.630Z,11.13
2019-03-29T18:31:00.450Z,10.77
2019-03-29T18:33:30.664Z,7.80
2019-03-29T18:36:00.556Z,13.73
2019-03-29T18:38:32.657Z,7.90
2019-03-29T18:41:02.480Z,6.90
2019-03-29T18:43:32.313Z,5.37
2019-03-29T18:46:02.251Z,6.40
2019-03-29T18:48:32.112Z,4.13
2019-03-29T18:51:01.926Z,5.03
2019-03-29T18:53:31.744Z,4.10
2019-03-29T18:56:01.670Z,4.10
2019-03-29T18:58:31.574Z,6.70
2019-03-29T19:01:01.483Z,6.87
2019-03-29T19:03:31.354Z,10.10
2019-03-29T19:06:01.486Z,5.47
2019-03-29T19:08:31.571Z,8.27
2019-03-29T19:11:02.006Z,7.97
2019-03-29T19:13:32.107Z,6.30
2019-03-29T19:16:02.972Z,5.03
2019-03-29T19:18:33.090Z,8.13
2019-03-29T19:21:03.066Z,6.83
2019-03-29T19:23:32.844Z,8.43
2019-03-29T19:26:02.950Z,5.50
2019-03-29T19:28:32.772Z,6.90
2019-03-29T19:31:02.867Z,10.70
2019-03-29T19:33:32.712Z,6.17
2019-03-29T19:36:02.808Z,9.63
2019-03-29T19:38:32.699Z,13.40
2019-03-29T19:41:02.515Z,17.50
2019-03-29T19:43:32.341Z,13.30
2019-03-29T19:46:02.222Z,11.20
2019-03-29T19:48:32.334Z,5.83
2019-03-29T19:51:02.223Z,5.73
2019-03-29T19:53:34.319Z,6.97
2019-03-29T19:56:03.993Z,6.63
2019-03-29T19:58:33.913Z,6.43
2019-03-29T20:01:04.795Z,6.93
2019-03-29T20:03:34.656Z,6.10
2019-03-29T20:06:04.482Z,6.13
2019-03-29T20:08:35.020Z,6.37
2019-03-29T20:11:05.112Z,5.30
2019-03-29T20:13:35.221Z,5.20
2019-03-29T20:16:05.137Z,8.67
2019-03-29T20:18:35.412Z,5.80
2019-03-29T20:21:05.627Z,5.17
2019-03-29T20:23:35.477Z,6.60
2019-03-29T20:26:08.152Z,7.97
2019-03-29T20:28:36.999Z,6.87
2019-03-29T20:31:06.843Z,7.97
2019-03-29T20:33:37.816Z,7.33
2019-03-29T20:36:07.694Z,4.63
2019-03-29T20:38:37.610Z,7.03
2019-03-29T20:41:07.497Z,6.63
2019-03-29T20:43:38.027Z,6.30
2019-03-29T20:46:08.257Z,5.83
2019-03-29T20:48:38.390Z,6.37
2019-03-29T20:51:08.370Z,6.83
2019-03-29T20:53:38.338Z,7.70
2019-03-29T20:56:08.210Z,8.00
2019-03-29T20:58:38.225Z,6.53
2019-03-29T21:01:08.357Z,8.27
2019-03-29T21:03:38.490Z,7.17
2019-03-29T21:06:08.358Z,13.47
2019-03-29T21:08:38.819Z,9.03
2019-03-29T21:11:08.681Z,12.10
2019-03-29T21:13:38.920Z,9.43
2019-03-29T21:16:08.836Z,9.57
2019-03-29T21:18:40.837Z,15.37
2019-03-29T21:21:10.684Z,11.47
2019-03-29T21:23:40.573Z,12.50
2019-03-29T21:26:10.913Z,10.53
2019-03-29T21:28:40.748Z,10.10
2019-03-29T21:31:10.915Z,10.67
2019-03-29T21:33:41.209Z,11.30
2019-03-29T21:36:13.850Z,8.80
2019-03-29T21:38:43.944Z,9.57
2019-03-29T21:41:13.747Z,8.20
2019-03-29T21:43:43.870Z,10.87
2019-03-29T21:46:13.719Z,8.77
2019-03-29T21:48:43.858Z,9.80
2019-03-29T21:51:13.685Z,15.23
2019-03-29T21:53:43.939Z,8.87
2019-03-29T21:56:14.025Z,9.23
2019-03-29T21:58:43.952Z,11.83
2019-03-29T22:01:14.038Z,12.50
2019-03-29T22:03:44.158Z,8.40
2019-03-29T22:06:14.008Z,8.33
2019-03-29T22:08:43.908Z,11.47
2019-03-29T22:11:13.820Z,9.33
2019-03-29T22:13:43.654Z,9.77
2019-03-29T22:16:13.486Z,12.13
2019-03-29T22:18:43.635Z,11.43
2019-03-29T22:21:14.956Z,10.93
2019-03-29T22:23:44.840Z,12.40
2019-03-29T22:26:14.983Z,10.87
2019-03-29T22:28:45.196Z,9.63
2019-03-29T22:31:15.016Z,11.47
2019-03-29T22:33:44.887Z,11.23
2019-03-29T22:36:15.049Z,11.17
2019-03-29T22:38:45.552Z,12.73
2019-03-29T22:41:15.862Z,11.47
2019-03-29T22:43:45.706Z,9.83
2019-03-29T22:46:15.973Z,12.10
2019-03-29T22:48:52.051Z,9.90
2019-03-29T22:51:17.347Z,8.40
2019-03-29T22:53:47.205Z,8.73
2019-03-29T22:56:17.103Z,10.23
2019-03-29T22:58:47.276Z,9.63
2019-03-29T23:01:17.991Z,9.03
2019-03-29T23:03:47.862Z,8.77
2019-03-29T23:06:17.690Z,8.93
2019-03-29T23:08:47.584Z,9.83
2019-03-29T23:11:18.061Z,12.97
2019-03-29T23:13:47.948Z,10.37
2019-03-29T23:16:17.809Z,12.43
2019-03-29T23:18:48.497Z,12.60
2019-03-29T23:21:18.315Z,11.37
2019-03-29T23:23:48.167Z,10.23
2019-03-29T23:26:18.035Z,11.10
2019-03-29T23:28:48.255Z,12.63
2019-03-29T23:31:18.391Z,8.67
2019-03-29T23:33:48.488Z,8.77
2019-03-29T23:36:20.698Z,13.43
2019-03-29T23:38:50.288Z,11.80
2019-03-29T23:41:21.860Z,13.53
2019-03-29T23:43:51.955Z,12.07
2019-03-29T23:46:22.117Z,12.33
2019-03-29T23:48:52.186Z,10.73
2019-03-29T23:51:22.448Z,12.60
2019-03-29T23:53:53.233Z,11.30
2019-03-29T23:56:23.120Z,11.37
2019-03-29T23:58:53.180Z,13.33
